createdAt,value
2019-04-14T00:02:18.946Z,3.50
2019-04-14T00:04:50.766Z,3.50
2019-04-14T00:07:21.641Z,3.50
2019-04-14T00:09:52.231Z,3.40
2019-04-14T00:12:23.043Z,3.50
2019-04-14T00:14:53.869Z,3.50
2019-04-14T00:17:26.246Z,3.40
2019-04-14T00:19:58.818Z,3.40
2019-04-14T00:22:30.751Z,3.40
2019-04-14T00:25:02.384Z,3.40
2019-04-14T00:27:34.577Z,3.40
2019-04-14T00:30:07.657Z,3.40
2019-04-14T00:32:46.560Z,3.50
2019-04-14T00:35:25.566Z,3.60
2019-04-14T00:38:21.813Z,3.60
2019-04-14T00:41:37.305Z,3.60
2019-04-14T00:44:07.811Z,3.60
2019-04-14T00:46:51.756Z,3.60
2019-04-14T00:49:22.774Z,3.60
2019-04-14T00:51:53.498Z,3.70
2019-04-14T00:54:24.132Z,3.70
2019-04-14T00:56:56.225Z,3.70
2019-04-14T00:59:26.892Z,3.70
2019-04-14T01:01:59.080Z,3.70
2019-04-14T01:04:29.798Z,3.70
2019-04-14T01:07:02.267Z,3.60
2019-04-14T01:09:32.852Z,3.70
2019-04-14T01:12:03.905Z,3.70
2019-04-14T01:14:34.482Z,3.70
2019-04-14T01:17:05.107Z,3.70
2019-04-14T01:19:37.570Z,3.70
2019-04-14T01:22:08.176Z,3.70
2019-04-14T01:24:40.391Z,3.70
2019-04-14T01:27:12.378Z,3.70
2019-04-14T01:29:43.376Z,3.70
2019-04-14T01:32:14.079Z,3.80
2019-04-14T01:34:45.543Z,3.80
2019-04-14T01:37:16.478Z,3.80
2019-04-14T01:39:48.101Z,3.80
2019-04-14T01:42:20.221Z,3.90
2019-04-14T01:44:51.095Z,3.90
2019-04-14T01:47:22.733Z,3.90
2019-04-14T01:49:53.569Z,3.90
2019-04-14T01:52:50.061Z,4.00
2019-04-14T01:55:41.624Z,4.00
2019-04-14T01:58:20.766Z,4.00
2019-04-14T02:01:13.028Z,4.00
2019-04-14T02:03:45.467Z,4.10
2019-04-14T02:06:15.988Z,4.20
2019-04-14T02:08:47.617Z,4.20
2019-04-14T02:11:18.648Z,4.20
2019-04-14T02:13:50.464Z,4.30
2019-04-14T02:16:29.290Z,4.30
2019-04-14T02:18:55.180Z,4.30
2019-04-14T02:21:26.057Z,4.30
2019-04-14T02:23:56.565Z,4.30
2019-04-14T02:26:27.087Z,4.40
2019-04-14T02:28:57.714Z,4.40
2019-04-14T02:31:53.614Z,4.40
2019-04-14T02:34:34.114Z,4.40
2019-04-14T02:37:08.109Z,4.50
2019-04-14T02:44:45.115Z,4.40
2019-04-14T02:47:29.415Z,4.40
2019-04-14T02:49:49.480Z,4.40
2019-04-14T02:54:51.923Z,4.40
2019-04-14T02:59:49.920Z,4.50
2019-04-14T03:02:38.906Z,4.50
2019-04-14T03:04:58.699Z,4.50
2019-04-14T03:07:28.596Z,4.50
2019-04-14T03:09:46.984Z,4.40
2019-04-14T03:12:31.736Z,4.40
2019-04-14T03:18:30.066Z,4.50
2019-04-14T03:21:03.913Z,4.50
2019-04-14T03:23:48.599Z,4.50
2019-04-14T03:26:11.658Z,4.50
2019-04-14T03:28:51.275Z,4.50
2019-04-14T03:31:52.484Z,4.50
2019-04-14T03:37:19.663Z,4.60
2019-04-14T03:39:09.793Z,4.60
2019-04-14T03:41:42.913Z,4.50
2019-04-14T03:44:10.017Z,4.50
2019-04-14T03:46:51.096Z,4.50
2019-04-14T03:49:14.071Z,4.50
2019-04-14T03:51:54.785Z,4.50
2019-04-14T03:54:15.661Z,4.50
2019-04-14T03:56:51.410Z,4.50
2019-04-14T03:59:23.836Z,4.50
2019-04-14T04:01:54.884Z,4.50
2019-04-14T04:04:25.488Z,4.50
2019-04-14T04:06:57.483Z,4.50
2019-04-14T04:09:38.890Z,4.70
2019-04-14T04:12:09.657Z,4.70
2019-04-14T04:14:40.346Z,4.70
2019-04-14T04:17:38.763Z,4.70
2019-04-14T04:20:28.631Z,4.70
2019-04-14T04:23:16.263Z,4.70
2019-04-14T04:25:55.313Z,4.70
2019-04-14T04:28:58.250Z,4.80
2019-04-14T04:31:41.526Z,4.90
2019-04-14T04:34:31.602Z,4.90
2019-04-14T04:37:20.031Z,5.00
2019-04-14T04:39:51.786Z,5.10
2019-04-14T04:42:24.359Z,5.30
2019-04-14T04:44:55.359Z,5.40
2019-04-14T04:47:27.296Z,5.60
2019-04-14T04:49:58.405Z,5.80
2019-04-14T04:52:30.032Z,6.00
2019-04-14T04:55:00.671Z,6.20
2019-04-14T04:57:31.158Z,6.50
2019-04-14T05:00:02.832Z,6.80
2019-04-14T05:02:33.636Z,7.00
2019-04-14T05:05:05.495Z,7.30
2019-04-14T05:07:36.564Z,7.30
2019-04-14T05:10:24.228Z,7.40
2019-04-14T05:13:09.412Z,7.30
2019-04-14T05:15:42.801Z,7.20
2019-04-14T05:18:24.668Z,7.10
2019-04-14T05:20:55.805Z,6.90
2019-04-14T05:23:27.673Z,6.70
2019-04-14T05:25:58.678Z,6.60
2019-04-14T05:28:29.283Z,6.60
2019-04-14T05:31:01.110Z,6.60
2019-04-14T05:33:32.076Z,6.70
2019-04-14T05:36:02.646Z,7.00
2019-04-14T05:38:34.398Z,7.40
2019-04-14T05:41:05.467Z,7.50
2019-04-14T05:43:45.006Z,7.60
2019-04-14T05:46:09.847Z,7.60
2019-04-14T05:48:40.844Z,7.60
2019-04-14T05:51:13.057Z,7.60
2019-04-14T05:53:43.912Z,7.60
2019-04-14T05:56:14.508Z,7.70
2019-04-14T05:58:45.009Z,7.90
2019-04-14T06:01:16.427Z,7.80
2019-04-14T06:03:47.523Z,7.60
2019-04-14T06:06:18.212Z,7.50
2019-04-14T06:08:48.844Z,7.40
2019-04-14T06:11:19.333Z,7.20
2019-04-14T06:13:49.743Z,7.30
2019-04-14T06:16:20.218Z,7.50
2019-04-14T06:18:50.668Z,7.40
2019-04-14T06:21:21.174Z,7.30
2019-04-14T06:23:51.976Z,7.30
2019-04-14T06:26:22.618Z,7.20
2019-04-14T06:28:53.043Z,7.20
2019-04-14T06:31:34.442Z,7.10
2019-04-14T06:34:15.615Z,7.00
2019-04-14T06:37:11.245Z,6.70
2019-04-14T06:39:45.523Z,6.50
2019-04-14T06:42:16.043Z,6.50
2019-04-14T06:44:46.527Z,6.60
2019-04-14T06:47:17.307Z,6.60
2019-04-14T06:49:49.486Z,6.60
2019-04-14T06:52:20.361Z,6.70
2019-04-14T06:54:51.205Z,6.60
2019-04-14T06:57:22.142Z,6.70
2019-04-14T06:59:53.036Z,6.80
2019-04-14T07:02:23.757Z,6.90
2019-04-14T07:04:54.477Z,7.00
2019-04-14T07:07:25.265Z,7.20
2019-04-14T07:09:56.022Z,7.20
2019-04-14T07:12:26.674Z,7.30
2019-04-14T07:14:57.152Z,7.50
2019-04-14T07:17:27.882Z,7.60
2019-04-14T07:20:02.253Z,7.80
2019-04-14T07:22:30.885Z,8.10
2019-04-14T07:25:01.640Z,8.40
2019-04-14T07:27:32.382Z,8.70
2019-04-14T07:30:21.888Z,8.70
2019-04-14T07:33:09.972Z,8.90
2019-04-14T07:35:58.299Z,8.90
2019-04-14T07:38:48.266Z,8.70
2019-04-14T07:41:31.008Z,8.50
2019-04-14T07:44:23.600Z,8.30
2019-04-14T07:47:06.741Z,8.30
2019-04-14T07:49:56.080Z,8.40
2019-04-14T07:52:40.469Z,8.60
2019-04-14T07:55:18.324Z,8.50
2019-04-14T07:58:07.824Z,8.70
2019-04-14T08:00:45.134Z,9.00
2019-04-14T08:03:32.139Z,9.20
2019-04-14T08:06:03.109Z,9.50
2019-04-14T08:08:33.756Z,9.70
2019-04-14T08:11:04.824Z,9.80
2019-04-14T08:13:36.535Z,9.90
2019-04-14T08:16:07.345Z,10.20
2019-04-14T08:18:38.129Z,10.20
2019-04-14T08:21:09.032Z,10.30
2019-04-14T08:23:39.690Z,10.30
2019-04-14T08:26:10.587Z,10.10
2019-04-14T08:28:41.499Z,10.10
2019-04-14T08:31:12.625Z,10.20
2019-04-14T08:33:43.219Z,10.30
2019-04-14T08:36:14.028Z,9.90
2019-04-14T08:38:44.870Z,9.80
2019-04-14T08:41:15.433Z,10.10
2019-04-14T08:43:53.019Z,10.10
2019-04-14T08:46:50.348Z,10.10
2019-04-14T08:49:34.012Z,9.90
2019-04-14T08:52:11.508Z,10.00
2019-04-14T08:55:00.924Z,10.00
2019-04-14T08:57:47.422Z,10.30
2019-04-14T09:00:35.390Z,10.30
2019-04-14T09:03:29.494Z,10.60
2019-04-14T09:06:22.386Z,10.70
2019-04-14T09:09:14.603Z,10.80
2019-04-14T09:11:55.641Z,11.00
2019-04-14T09:14:26.348Z,11.30
2019-04-14T09:16:57.253Z,11.60
2019-04-14T09:19:28.088Z,11.90
2019-04-14T09:21:58.699Z,12.30
2019-04-14T09:24:29.249Z,12.00
2019-04-14T09:27:00.344Z,11.80
2019-04-14T09:29:31.191Z,11.80
2019-04-14T09:32:02.007Z,11.70
2019-04-14T09:34:32.713Z,12.00
2019-04-14T09:37:03.537Z,11.80
2019-04-14T09:39:34.259Z,11.80
2019-04-14T09:42:05.261Z,11.80
2019-04-14T09:44:35.818Z,11.80
2019-04-14T09:47:06.854Z,11.90
2019-04-14T09:49:37.869Z,11.90
2019-04-14T09:52:08.586Z,12.00
2019-04-14T09:54:39.644Z,12.10
2019-04-14T09:57:10.621Z,12.10
2019-04-14T09:59:41.252Z,12.10
2019-04-14T10:02:12.003Z,12.00
2019-04-14T10:04:42.986Z,12.00
2019-04-14T10:07:13.778Z,11.90
2019-04-14T10:09:44.414Z,12.00
2019-04-14T10:12:15.093Z,11.90
2019-04-14T10:14:45.730Z,12.00
2019-04-14T10:17:16.800Z,12.10
2019-04-14T10:19:47.750Z,11.90
2019-04-14T10:22:18.373Z,11.90
2019-04-14T10:24:48.941Z,12.00
2019-04-14T10:27:20.037Z,11.90
2019-04-14T10:29:50.756Z,12.00
2019-04-14T10:32:21.300Z,12.00
2019-04-14T10:34:52.357Z,12.10
2019-04-14T10:37:23.004Z,12.00
2019-04-14T10:39:54.165Z,12.00
2019-04-14T10:42:24.811Z,11.90
2019-04-14T10:44:55.495Z,12.10
2019-04-14T10:47:26.121Z,12.20
2019-04-14T10:49:56.961Z,12.20
2019-04-14T10:52:27.644Z,11.90
2019-04-14T10:54:58.143Z,11.90
2019-04-14T10:57:28.943Z,11.90
2019-04-14T11:00:00.045Z,12.00
2019-04-14T11:02:30.730Z,12.00
2019-04-14T11:05:01.480Z,12.20
2019-04-14T11:07:34.168Z,12.20
2019-04-14T11:10:05.345Z,12.10
2019-04-14T11:12:36.282Z,12.10
2019-04-14T11:15:08.034Z,12.10
2019-04-14T11:17:38.733Z,12.10
2019-04-14T11:20:09.986Z,12.10
2019-04-14T11:22:40.900Z,12.10
2019-04-14T11:25:11.785Z,12.00
2019-04-14T11:27:44.742Z,12.00
2019-04-14T11:30:19.288Z,12.10
2019-04-14T11:32:59.200Z,12.10
2019-04-14T11:35:51.683Z,12.20
2019-04-14T11:38:28.839Z,12.30
2019-04-14T11:41:01.472Z,12.30
2019-04-14T11:43:32.149Z,12.40
2019-04-14T11:46:03.993Z,12.50
2019-04-14T11:48:34.919Z,12.40
2019-04-14T11:51:06.189Z,12.50
2019-04-14T11:53:38.351Z,12.60
2019-04-14T11:56:09.382Z,12.70
2019-04-14T11:58:39.832Z,12.70
2019-04-14T12:01:35.606Z,12.80
2019-04-14T12:04:25.651Z,12.80
2019-04-14T12:07:18.910Z,12.70
2019-04-14T12:09:53.768Z,12.80
2019-04-14T12:12:24.604Z,12.80
2019-04-14T12:14:55.171Z,12.80
2019-04-14T12:17:26.010Z,12.80
2019-04-14T12:19:57.295Z,12.90
2019-04-14T12:22:27.992Z,12.90
2019-04-14T12:24:58.855Z,13.00
2019-04-14T12:27:29.708Z,13.00
2019-04-14T12:30:01.050Z,13.00
2019-04-14T12:32:33.746Z,13.10
2019-04-14T12:35:04.550Z,13.20
2019-04-14T12:37:35.280Z,13.20
2019-04-14T12:40:07.362Z,13.20
2019-04-14T12:42:56.217Z,13.30
2019-04-14T12:45:44.982Z,13.20
2019-04-14T12:48:34.667Z,13.20
2019-04-14T12:51:09.421Z,13.30
2019-04-14T12:53:40.195Z,13.20
2019-04-14T12:56:10.902Z,13.30
2019-04-14T12:58:49.647Z,13.20
2019-04-14T13:01:20.991Z,13.20
2019-04-14T13:03:51.663Z,13.40
2019-04-14T13:06:22.489Z,13.40
2019-04-14T13:08:53.364Z,13.50
2019-04-14T13:11:24.168Z,13.50
2019-04-14T13:13:55.142Z,13.50
2019-04-14T13:16:26.267Z,13.60
2019-04-14T13:18:57.086Z,13.60
2019-04-14T13:21:27.825Z,13.50
2019-04-14T13:23:58.430Z,13.60
2019-04-14T13:26:29.090Z,13.70
2019-04-14T13:28:59.865Z,13.70
2019-04-14T13:31:30.647Z,13.70
2019-04-14T13:34:01.302Z,13.70
2019-04-14T13:36:32.135Z,13.80
2019-04-14T13:39:04.468Z,13.80
2019-04-14T13:41:37.202Z,13.80
2019-04-14T13:44:09.325Z,13.80
2019-04-14T13:46:39.895Z,13.90
2019-04-14T13:49:10.481Z,13.90
2019-04-14T13:51:41.881Z,13.90
2019-04-14T13:54:13.011Z,13.90
2019-04-14T13:56:43.601Z,14.00
2019-04-14T13:59:14.409Z,13.90
2019-04-14T14:01:45.401Z,13.90
2019-04-14T14:04:16.283Z,13.80
2019-04-14T14:06:47.139Z,13.80
2019-04-14T14:09:17.760Z,13.70
2019-04-14T14:11:54.742Z,13.80
2019-04-14T14:14:42.989Z,13.70
2019-04-14T14:17:32.476Z,13.60
2019-04-14T14:20:14.106Z,13.60
2019-04-14T14:23:16.192Z,13.60
2019-04-14T14:25:53.356Z,13.60
2019-04-14T14:28:25.013Z,13.50
2019-04-14T14:30:55.638Z,13.50
2019-04-14T14:33:26.331Z,13.60
2019-04-14T14:35:56.890Z,13.40
2019-04-14T14:38:27.701Z,13.40
2019-04-14T14:41:00.010Z,13.40
2019-04-14T14:43:31.047Z,13.50
2019-04-14T14:46:19.980Z,13.50
2019-04-14T14:48:59.817Z,13.50
2019-04-14T14:51:49.400Z,13.40
2019-04-14T14:54:20.500Z,13.40
2019-04-14T14:56:51.360Z,13.20
2019-04-14T14:59:22.325Z,13.20
2019-04-14T15:01:53.252Z,13.20
2019-04-14T15:04:23.822Z,13.20
2019-04-14T15:06:54.683Z,13.20
2019-04-14T15:09:25.577Z,13.10
2019-04-14T15:11:56.130Z,13.10
2019-04-14T15:14:26.876Z,13.10
2019-04-14T15:16:57.543Z,13.00
2019-04-14T15:19:28.405Z,12.90
2019-04-14T15:21:59.523Z,12.90
2019-04-14T15:24:30.600Z,13.00
2019-04-14T15:27:01.719Z,13.00
2019-04-14T15:29:32.322Z,12.90
2019-04-14T15:32:03.230Z,12.80
2019-04-14T15:34:33.926Z,12.80
2019-04-14T15:37:04.837Z,12.80
2019-04-14T15:39:37.644Z,12.80
2019-04-14T15:42:07.844Z,12.90
2019-04-14T15:44:38.710Z,12.90
2019-04-14T15:47:09.923Z,12.80
2019-04-14T15:49:40.973Z,12.80
2019-04-14T15:52:11.885Z,12.80
2019-04-14T15:54:43.210Z,12.90
2019-04-14T15:57:24.374Z,12.80
2019-04-14T16:00:12.828Z,12.80
2019-04-14T16:03:02.544Z,12.80
2019-04-14T16:05:52.261Z,12.80
2019-04-14T16:08:30.496Z,12.80
2019-04-14T16:11:21.548Z,12.70
2019-04-14T16:14:08.414Z,12.60
2019-04-14T16:17:08.648Z,12.60
2019-04-14T16:19:48.574Z,12.60
2019-04-14T16:22:19.298Z,12.60
2019-04-14T16:24:50.420Z,12.60
2019-04-14T16:27:38.256Z,12.50
2019-04-14T16:30:34.689Z,12.40
2019-04-14T16:33:30.376Z,12.30
2019-04-14T16:36:01.021Z,12.30
2019-04-14T16:38:31.923Z,12.10
2019-04-14T16:41:03.363Z,12.10
2019-04-14T16:43:34.275Z,12.10
2019-04-14T16:46:05.232Z,12.00
2019-04-14T16:48:36.152Z,11.90
2019-04-14T16:51:08.853Z,11.80
2019-04-14T16:53:42.071Z,11.80
2019-04-14T16:56:21.729Z,11.70
2019-04-14T16:58:57.693Z,11.70
2019-04-14T17:01:36.632Z,11.60
2019-04-14T17:04:07.461Z,11.50
2019-04-14T17:06:38.568Z,11.40
2019-04-14T17:09:10.480Z,11.30
2019-04-14T17:11:42.542Z,11.30
2019-04-14T17:14:20.255Z,11.20
2019-04-14T17:17:08.063Z,11.20
2019-04-14T17:19:57.881Z,11.10
2019-04-14T17:22:59.938Z,11.10
2019-04-14T17:25:37.716Z,11.00
2019-04-14T17:28:36.417Z,11.00
2019-04-14T17:31:18.648Z,10.90
2019-04-14T17:34:27.472Z,10.80
2019-04-14T17:37:25.798Z,10.80
2019-04-14T17:40:01.489Z,10.70
2019-04-14T17:42:41.033Z,10.70
2019-04-14T17:45:36.653Z,10.60
2019-04-14T17:48:35.338Z,10.50
2019-04-14T17:51:23.592Z,10.50
2019-04-14T17:54:00.831Z,10.50
2019-04-14T17:56:45.971Z,10.40
2019-04-14T17:59:26.036Z,10.30
2019-04-14T18:02:14.058Z,10.30
2019-04-14T18:05:01.992Z,10.30
2019-04-14T18:07:51.939Z,10.30
2019-04-14T18:10:44.623Z,10.20
2019-04-14T18:13:27.465Z,10.20
2019-04-14T18:16:20.298Z,10.20
2019-04-14T18:19:10.103Z,10.10
2019-04-14T18:21:40.997Z,10.10
2019-04-14T18:24:11.968Z,10.00
2019-04-14T18:26:42.923Z,10.00
2019-04-14T18:29:31.719Z,10.00
2019-04-14T18:32:10.441Z,9.90
2019-04-14T18:34:56.597Z,9.90
2019-04-14T18:37:52.611Z,9.90
2019-04-14T18:40:45.565Z,9.80
2019-04-14T18:43:33.286Z,9.70
2019-04-14T18:46:24.263Z,9.70
2019-04-14T18:49:01.283Z,9.60
2019-04-14T18:51:55.048Z,9.60
2019-04-14T18:54:54.394Z,9.50
2019-04-14T18:57:34.004Z,9.50
2019-04-14T19:00:20.877Z,9.50
2019-04-14T19:02:51.936Z,9.40
2019-04-14T19:05:23.284Z,9.40
2019-04-14T19:07:54.403Z,9.30
2019-04-14T19:10:25.736Z,9.30
2019-04-14T19:13:15.503Z,9.20
2019-04-14T19:15:55.793Z,9.20
2019-04-14T19:18:29.989Z,9.10
2019-04-14T19:21:07.487Z,9.10
2019-04-14T19:23:38.565Z,9.10
2019-04-14T19:26:10.077Z,9.00
2019-04-14T19:28:41.128Z,9.00
2019-04-14T19:31:12.209Z,9.00
2019-04-14T19:33:43.150Z,9.00
2019-04-14T19:36:14.551Z,8.90
2019-04-14T19:38:45.357Z,8.90
2019-04-14T19:41:16.235Z,8.90
2019-04-14T19:43:46.988Z,8.80
2019-04-14T19:46:17.922Z,8.70
2019-04-14T19:48:49.048Z,8.70
2019-04-14T19:51:20.152Z,8.70
2019-04-14T19:53:51.404Z,8.70
2019-04-14T19:56:22.576Z,8.60
2019-04-14T19:58:53.421Z,8.60
2019-04-14T20:01:24.212Z,8.60
2019-04-14T20:03:55.252Z,8.60
2019-04-14T20:06:26.138Z,8.60
2019-04-14T20:08:56.854Z,8.50
2019-04-14T20:11:28.112Z,8.50
2019-04-14T20:13:58.851Z,8.40
2019-04-14T20:16:48.972Z,8.40
2019-04-14T20:19:39.322Z,8.40
2019-04-14T20:22:32.060Z,8.30
2019-04-14T20:25:33.874Z,8.30
2019-04-14T20:28:19.411Z,8.20
2019-04-14T20:30:59.508Z,8.20
2019-04-14T20:33:30.352Z,8.10
2019-04-14T20:36:01.240Z,8.10
2019-04-14T20:38:32.101Z,8.00
2019-04-14T20:41:03.010Z,8.00
2019-04-14T20:43:33.719Z,7.90
2019-04-14T20:46:04.685Z,7.90
2019-04-14T20:48:36.756Z,7.80
2019-04-14T20:51:07.363Z,7.80
2019-04-14T20:53:38.027Z,7.80
2019-04-14T20:56:08.530Z,7.80
2019-04-14T20:58:39.478Z,7.70
2019-04-14T21:01:12.196Z,7.70
2019-04-14T21:04:04.970Z,7.60
2019-04-14T21:06:57.540Z,7.60
2019-04-14T21:09:32.659Z,7.60
2019-04-14T21:12:20.785Z,7.50
2019-04-14T21:15:05.161Z,7.50
2019-04-14T21:17:48.214Z,7.50
2019-04-14T21:20:43.733Z,7.40
2019-04-14T21:23:26.568Z,7.50
2019-04-14T21:26:19.258Z,7.40
2019-04-14T21:29:08.082Z,7.30
2019-04-14T21:31:56.034Z,7.30
2019-04-14T21:34:36.266Z,7.30
2019-04-14T21:37:17.953Z,7.30
2019-04-14T21:39:55.765Z,7.30
2019-04-14T21:42:26.648Z,7.20
2019-04-14T21:44:57.600Z,7.10
2019-04-14T21:47:29.049Z,7.10
2019-04-14T21:49:59.716Z,7.10
2019-04-14T21:52:34.540Z,7.00
2019-04-14T21:55:06.296Z,7.00
2019-04-14T21:58:07.896Z,7.00
2019-04-14T22:01:49.171Z,6.90
2019-04-14T22:04:39.432Z,6.90
2019-04-14T22:07:35.526Z,6.80
2019-04-14T22:10:33.219Z,6.80
2019-04-14T22:13:05.991Z,6.70
2019-04-14T22:15:36.793Z,6.70
2019-04-14T22:18:09.021Z,6.70
2019-04-14T22:20:39.734Z,6.60
2019-04-14T22:23:12.317Z,6.60
2019-04-14T22:25:43.447Z,6.50
2019-04-14T22:28:13.979Z,6.50
2019-04-14T22:30:44.875Z,6.50
2019-04-14T22:33:15.649Z,6.40
2019-04-14T22:35:46.243Z,6.40
2019-04-14T22:38:18.002Z,6.40
2019-04-14T22:40:48.512Z,6.30
2019-04-14T22:43:19.440Z,6.30
2019-04-14T22:45:50.066Z,6.30
2019-04-14T22:48:20.923Z,6.30
2019-04-14T22:50:51.956Z,6.30
2019-04-14T22:53:23.558Z,6.30
2019-04-14T22:55:54.644Z,6.30
2019-04-14T22:58:25.318Z,6.30
2019-04-14T23:01:04.463Z,6.30
2019-04-14T23:03:54.604Z,6.30
2019-04-14T23:06:55.735Z,6.30
2019-04-14T23:09:45.270Z,6.20
2019-04-14T23:12:34.790Z,6.20
2019-04-14T23:15:44.000Z,6.20
2019-04-14T23:18:29.141Z,6.10
2019-04-14T23:21:16.993Z,6.00
2019-04-14T23:24:15.483Z,6.00
2019-04-14T23:26:52.656Z,5.90
2019-04-14T23:29:19.600Z,5.90
2019-04-14T23:31:50.294Z,5.90
2019-04-14T23:34:20.881Z,5.90
2019-04-14T23:36:51.837Z,5.90
2019-04-14T23:39:22.635Z,5.70
2019-04-14T23:41:53.200Z,5.70
2019-04-14T23:44:24.029Z,5.70
2019-04-14T23:46:54.905Z,5.60
2019-04-14T23:49:25.653Z,5.70
2019-04-14T23:51:56.281Z,5.60
2019-04-14T23:54:27.017Z,5.60
2019-04-14T23:57:05.276Z,5.70
2019-04-14T23:59:30.591Z,5.70
